Overview Statistics Trail Chart Weather Telemetry Raw packets
 

This is the latest recevied weather packets stored in our database for station/object G4MHJ-1. If no packets are shown the sender has not sent any weather packets the latest 10 day(s).

<< 2 3 4 5 6 7 8 >>
Time Temp. Humidity Pressure Rain* Wind** Luminosity Snow
1788217049 16.67° C 71% 1017.9 hPa 0 mm - 0 W/m² -
1788213449 17.78° C 70% 1017.7 hPa 0 mm - 0 W/m² -
1788209848 18.33° C 69% 1017.1 hPa 0 mm - 0 W/m² -
1788206251 19.44° C 65% 1016.3 hPa 0 mm - 0 W/m² -
1788202649 20.56° C 65% 1015.5 hPa 0 mm - 0 W/m² -
1788199050 21.11° C 67% 1014.6 hPa 0 mm - 56 W/m² -
1788195446 21.11° C 69% 1014 hPa 0 mm - 42 W/m² -
1788191847 20.56° C 74% 1013.7 hPa 0 mm - 104 W/m² -
1788188246 23.89° C 55% 1013 hPa 0 mm - 51 W/m² -
1788184646 23.33° C 55% 1012.3 hPa 0 mm - 204 W/m² -
1788181047 23.33° C 57% 1011.7 hPa 0 mm - 796 W/m² -
1788177448 21.67° C 61% 1011 hPa 0 mm - 780 W/m² -
1788173848 21.11° C 65% 1010.3 hPa 0 mm - 186 W/m² -
1788170246 19.44° C 72% 1009.7 hPa 0 mm - 178 W/m² -
1788166647 17.78° C 77% 1009 hPa 0 mm - 197 W/m² -
1788163047 16.11° C 84% 1008.1 hPa 0 mm - 90 W/m² -
1788159446 15° C 89% 1007.2 hPa 0 mm - 46 W/m² -
1788155845 14.44° C 90% 1006.3 hPa 0 mm - 25 W/m² -
1788152244 14.44° C 88% 1005.5 hPa 0 mm - 0 W/m² -
1788148645 15.56° C 87% 1005.1 hPa 0 mm - 0 W/m² -
1788145045 16.11° C 90% 1004.8 hPa 0 mm - 0 W/m² -
1788141445 16.11° C 90% 1004.2 hPa 0 mm - 0 W/m² -
1788137844 16.11° C 89% 1004.7 hPa 0 mm - 0 W/m² -
1788134242 16.11° C 88% 1005.4 hPa 0 mm - 0 W/m² -
1788130640 16.67° C 87% 1005.8 hPa 0 mm - 0 W/m² -

* Rain latest hour (hover to see other rain measurements)
** Current wind speed in m/s (hover to see current wind gust speed)